Time;durP1;ratioP1;P1;durP2;ratioP2;P2;SDS_P1;SDS_P2;PMS_P1;PMS_P2;Temp;Humidity;BMP_temperature;BMP_pressure;BME280_temperature;BME280_humidity;BME280_pressure;Samples;Min_cycle;Max_cycle;Signal;HPM_P1;HPM_P2
2021/07/16 00:01:55;;;;;;;5.88;2.83;;;15.80;99.90;;;;;;5011843;28;20523;-71
2021/07/16 00:04:20;;;;;;;9.68;3.10;;;15.70;99.90;;;;;;5011522;28;20026;-71
2021/07/16 00:06:47;;;;;;;10.75;4.18;;;15.60;99.90;;;;;;5011684;28;20558;-71
2021/07/16 00:09:13;;;;;;;3.63;2.78;;;15.60;99.90;;;;;;5012609;28;20034;-71
2021/07/16 00:11:39;;;;;;;3.35;3.13;;;15.50;99.90;;;;;;5014222;28;20472;-71
2021/07/16 00:14:05;;;;;;;6.28;3.72;;;15.50;99.90;;;;;;5013970;28;20481;-72
2021/07/16 00:16:32;;;;;;;8.52;3.20;;;15.50;99.90;;;;;;5011842;28;20106;-71
2021/07/16 00:18:59;;;;;;;7.82;3.22;;;15.40;99.90;;;;;;5011698;28;20493;-70
2021/07/16 00:21:24;;;;;;;7.78;3.92;;;15.30;99.90;;;;;;5013095;28;20033;-71
2021/07/16 00:23:51;;;;;;;5.07;4.03;;;15.30;99.90;;;;;;5015525;28;20023;-70
2021/07/16 00:26:17;;;;;;;8.32;4.45;;;15.30;99.90;;;;;;5015070;28;20034;-71
2021/07/16 00:28:44;;;;;;;5.20;4.35;;;15.30;99.90;;;;;;5015430;28;20141;-69
2021/07/16 00:31:10;;;;;;;10.45;3.60;;;15.30;99.90;;;;;;5015420;28;20022;-72
2021/07/16 00:33:36;;;;;;;7.30;4.25;;;15.30;99.90;;;;;;5015531;28;20022;-70
2021/07/16 00:36:02;;;;;;;4.20;3.80;;;15.40;99.90;;;;;;5014954;28;20022;-70
2021/07/16 00:38:28;;;;;;;4.60;3.38;;;15.30;99.90;;;;;;5015690;28;20076;-71
2021/07/16 00:40:54;;;;;;;3.88;3.47;;;15.30;99.90;;;;;;5015282;28;20416;-70
2021/07/16 00:43:19;;;;;;;7.90;2.97;;;15.30;99.90;;;;;;5015219;28;20133;-70
2021/07/16 00:45:45;;;;;;;3.28;2.20;;;15.30;99.90;;;;;;5014508;28;20582;-71
2021/07/16 00:48:11;;;;;;;2.00;1.58;;;15.20;99.90;;;;;;5006849;28;20446;-70
2021/07/16 00:50:38;;;;;;;2.53;2.10;;;15.00;99.90;;;;;;4995681;28;20385;-71
2021/07/16 00:53:09;;;;;;;5.30;2.25;;;15.00;99.90;;;;;;4995271;28;20061;-70
2021/07/16 00:55:35;;;;;;;2.60;1.95;;;15.00;99.90;;;;;;4995267;28;20022;-70
2021/07/16 00:58:00;;;;;;;2.22;2.10;;;14.90;99.90;;;;;;4995641;28;20097;-71
2021/07/16 01:00:26;;;;;;;2.20;1.88;;;14.80;99.90;;;;;;4995705;28;20093;-71
2021/07/16 01:02:52;;;;;;;3.67;2.45;;;14.80;99.90;;;;;;4995578;28;20033;-70
2021/07/16 01:05:20;;;;;;;4.57;2.70;;;14.80;99.90;;;;;;4994575;28;20559;-71
2021/07/16 01:07:49;;;;;;;2.40;2.20;;;14.90;99.90;;;;;;4995435;28;20066;-71
2021/07/16 01:10:15;;;;;;;2.97;2.40;;;14.80;99.90;;;;;;4995212;28;20033;-70
2021/07/16 01:12:42;;;;;;;7.35;3.00;;;14.80;99.90;;;;;;4995481;28;20603;-71
2021/07/16 01:15:15;;;;;;;8.27;3.60;;;14.90;99.90;;;;;;4994438;28;20034;-71
2021/07/16 01:17:42;;;;;;;6.85;3.90;;;15.00;99.90;;;;;;5013472;28;20080;-70
2021/07/16 01:20:19;;;;;;;4.88;3.83;;;14.90;99.90;;;;;;5014689;28;20042;-70
2021/07/16 01:22:46;;;;;;;8.10;4.05;;;14.90;99.90;;;;;;5014317;28;20045;-71
2021/07/16 01:25:20;;;;;;;4.82;3.83;;;14.80;99.90;;;;;;5013813;28;20033;-72
2021/07/16 01:27:48;;;;;;;5.80;4.65;;;14.80;99.90;;;;;;5014335;28;20388;-71
2021/07/16 01:30:17;;;;;;;15.93;5.60;;;14.80;99.90;;;;;;5013774;28;20064;-71
2021/07/16 01:32:43;;;;;;;6.53;5.13;;;14.80;99.90;;;;;;5014291;28;20029;-70
2021/07/16 01:35:10;;;;;;;4.82;4.43;;;14.80;99.90;;;;;;4995892;28;20030;-71
2021/07/16 01:37:36;;;;;;;6.80;3.88;;;14.70;99.90;;;;;;5016948;28;20037;-71
2021/07/16 01:40:12;;;;;;;3.40;2.75;;;14.70;99.90;;;;;;5025051;28;20034;-70
2021/07/16 01:42:40;;;;;;;6.47;3.08;;;14.50;99.90;;;;;;5019683;28;20140;-70
2021/07/16 01:45:21;;;;;;;7.45;3.33;;;14.60;99.90;;;;;;5014207;28;20425;-70
2021/07/16 01:47:48;;;;;;;5.03;4.18;;;14.60;99.90;;;;;;4996390;28;20030;-70
2021/07/16 01:50:15;;;;;;;8.32;4.63;;;14.80;99.90;;;;;;5014057;28;20018;-70
2021/07/16 01:52:44;;;;;;;7.75;4.70;;;14.70;99.90;;;;;;4996183;28;20022;-70
2021/07/16 01:55:10;;;;;;;6.47;4.80;;;14.70;99.90;;;;;;5013257;28;20083;-70
2021/07/16 01:57:36;;;;;;;15.77;7.65;;;14.80;99.90;;;;;;5013572;28;20017;-69
2021/07/16 02:00:11;;;;;;;11.57;7.95;;;14.90;99.90;;;;;;5014035;28;20401;-70
2021/07/16 02:02:47;;;;;;;9.80;7.97;;;15.00;99.90;;;;;;5014433;28;20030;-70
2021/07/16 02:05:14;;;;;;;20.27;8.98;;;15.10;99.90;;;;;;5013340;28;20032;-70
2021/07/16 02:07:39;;;;;;;20.50;10.15;;;15.10;99.90;;;;;;5013380;28;20508;-71
2021/07/16 02:10:05;;;;;;;10.70;7.85;;;15.20;99.90;;;;;;5013813;28;20029;-70
2021/07/16 02:12:31;;;;;;;11.05;7.97;;;15.20;99.90;;;;;;5013754;28;20048;-70
2021/07/16 02:14:57;;;;;;;11.60;8.27;;;15.10;99.90;;;;;;5012793;28;20057;-70
2021/07/16 02:17:23;;;;;;;7.95;7.15;;;15.00;99.90;;;;;;5014093;28;20034;-70
2021/07/16 02:19:49;;;;;;;6.60;6.00;;;15.10;99.90;;;;;;5013596;28;20362;-70
2021/07/16 02:22:14;;;;;;;8.27;6.78;;;15.10;99.90;;;;;;5013882;28;20407;-70
2021/07/16 02:24:40;;;;;;;12.43;6.53;;;15.10;99.90;;;;;;5012662;28;20052;-70
2021/07/16 02:27:07;;;;;;;7.80;6.05;;;15.10;99.90;;;;;;5013660;28;20022;-70
2021/07/16 02:29:34;;;;;;;8.65;7.70;;;15.30;99.90;;;;;;5013149;28;20096;-70
2021/07/16 02:32:00;;;;;;;10.73;7.10;;;15.40;99.90;;;;;;5013335;28;20046;-70
2021/07/16 02:34:30;;;;;;;10.98;7.18;;;15.40;99.90;;;;;;4995330;28;20129;-70
2021/07/16 02:36:56;;;;;;;10.55;7.70;;;15.40;99.90;;;;;;5013277;28;20443;-70
2021/07/16 02:39:22;;;;;;;11.30;8.50;;;15.50;99.90;;;;;;5013153;28;20652;-70
2021/07/16 02:41:47;;;;;;;12.35;8.07;;;15.50;99.90;;;;;;4995566;28;20026;-70
2021/07/16 02:44:13;;;;;;;15.15;8.48;;;15.60;99.90;;;;;;5013015;28;20017;-70
2021/07/16 02:46:39;;;;;;;9.90;6.97;;;15.50;99.90;;;;;;5012947;28;20030;-70
2021/07/16 02:49:04;;;;;;;11.15;6.45;;;15.40;99.90;;;;;;5013311;28;20431;-70
2021/07/16 02:51:30;;;;;;;8.38;5.82;;;15.30;99.90;;;;;;4995827;28;20578;-70
2021/07/16 02:53:56;;;;;;;10.95;5.93;;;15.30;99.90;;;;;;5013018;28;20507;-70
2021/07/16 02:56:23;;;;;;;10.52;6.15;;;15.30;99.90;;;;;;5012248;28;20772;-71
2021/07/16 02:58:49;;;;;;;12.32;6.00;;;15.30;99.90;;;;;;5013080;28;20033;-70
2021/07/16 03:01:14;;;;;;;8.32;6.15;;;15.30;99.90;;;;;;5012945;28;20022;-70
2021/07/16 03:03:40;;;;;;;9.75;7.63;;;15.20;99.90;;;;;;5012816;28;20030;-70
2021/07/16 03:06:06;;;;;;;25.98;7.85;;;15.20;99.90;;;;;;5012155;28;20112;-70
2021/07/16 03:08:31;;;;;;;15.18;7.80;;;15.30;99.90;;;;;;5013042;28;20046;-70
2021/07/16 03:10:57;;;;;;;16.65;7.97;;;15.30;99.90;;;;;;4995672;28;20026;-70
2021/07/16 03:13:23;;;;;;;40.05;9.98;;;15.30;99.90;;;;;;5012696;28;20034;-70
2021/07/16 03:15:48;;;;;;;61.78;11.07;;;15.40;99.90;;;;;;5012043;28;20747;-71
2021/07/16 03:18:15;;;;;;;26.23;11.15;;;15.60;99.90;;;;;;5012594;28;20484;-71
2021/07/16 03:20:44;;;;;;;16.58;11.82;;;15.70;99.90;;;;;;5012485;28;20052;-71
2021/07/16 03:23:12;;;;;;;15.70;10.15;;;15.70;99.90;;;;;;5012172;28;20108;-71
2021/07/16 03:25:38;;;;;;;24.23;9.32;;;15.60;99.90;;;;;;5011766;28;20033;-71
2021/07/16 03:28:05;;;;;;;21.50;9.82;;;15.50;99.90;;;;;;5012393;28;20029;-71
2021/07/16 03:30:32;;;;;;;14.73;8.90;;;15.30;99.90;;;;;;5012386;28;20037;-70
2021/07/16 03:32:58;;;;;;;11.50;9.23;;;15.20;99.90;;;;;;5012524;28;20029;-70
2021/07/16 03:35:25;;;;;;;10.43;9.13;;;15.20;99.90;;;;;;5011584;28;20423;-70
2021/07/16 03:37:52;;;;;;;19.83;9.48;;;15.20;99.90;;;;;;5012067;28;20109;-70
2021/07/16 03:40:19;;;;;;;13.65;9.30;;;15.10;99.90;;;;;;5012040;28;20022;-71
2021/07/16 03:42:45;;;;;;;11.10;8.23;;;15.10;99.90;;;;;;5012010;28;20074;-71
2021/07/16 03:45:13;;;;;;;13.40;8.57;;;15.10;99.90;;;;;;5011556;28;20013;-72
2021/07/16 03:47:43;;;;;;;13.48;9.18;;;15.20;99.90;;;;;;5012196;28;20040;-71
2021/07/16 03:50:11;;;;;;;22.15;9.55;;;15.40;99.90;;;;;;5012196;28;20018;-71
2021/07/16 03:52:37;;;;;;;22.63;8.55;;;15.30;99.90;;;;;;4994157;28;20026;-71
2021/07/16 03:55:08;;;;;;;10.98;8.15;;;15.10;99.90;;;;;;5010475;28;20022;-71
2021/07/16 03:57:34;;;;;;;9.88;8.32;;;15.20;99.90;;;;;;5011762;28;20060;-71
2021/07/16 04:00:07;;;;;;;12.30;8.15;;;15.20;99.90;;;;;;5012294;28;20057;-71
2021/07/16 04:02:32;;;;;;;10.55;8.13;;;15.20;99.90;;;;;;5011822;28;20026;-71
2021/07/16 04:04:58;;;;;;;12.30;7.88;;;15.20;99.90;;;;;;5011238;28;20029;-71
2021/07/16 04:07:31;;;;;;;16.70;8.25;;;15.20;99.90;;;;;;5011537;28;20999;-71
2021/07/16 04:09:57;;;;;;;17.83;8.73;;;15.20;99.90;;;;;;5011614;28;20101;-71
2021/07/16 04:12:23;;;;;;;14.20;10.02;;;15.20;99.90;;;;;;5011857;28;20120;-71
2021/07/16 04:14:51;;;;;;;11.20;8.43;;;15.40;99.90;;;;;;5011132;28;20030;-71
2021/07/16 04:17:23;;;;;;;12.63;9.00;;;15.40;99.90;;;;;;5011423;28;20025;-71
2021/07/16 04:19:50;;;;;;;11.05;8.45;;;15.50;99.90;;;;;;5011798;28;20022;-71
2021/07/16 04:22:17;;;;;;;9.73;8.65;;;15.50;99.90;;;;;;5011768;28;20053;-71
2021/07/16 04:24:43;;;;;;;10.05;7.93;;;15.40;99.90;;;;;;4993145;28;20030;-71
2021/07/16 04:27:11;;;;;;;8.88;7.68;;;15.40;99.90;;;;;;5011749;28;20399;-71
2021/07/16 04:29:38;;;;;;;10.40;7.57;;;15.50;99.90;;;;;;5011519;28;20096;-71
2021/07/16 04:32:05;;;;;;;8.20;7.40;;;15.60;99.90;;;;;;5000892;28;20117;-71
2021/07/16 04:34:34;;;;;;;10.73;7.15;;;15.60;99.90;;;;;;5003870;28;20587;-71
2021/07/16 04:37:01;;;;;;;9.88;8.07;;;15.60;99.90;;;;;;5011372;28;20484;-72
2021/07/16 04:39:27;;;;;;;10.18;7.15;;;15.60;99.90;;;;;;5005213;28;20066;-71
2021/07/16 04:41:54;;;;;;;7.88;7.07;;;15.50;99.90;;;;;;5015437;28;20030;-71
2021/07/16 04:44:21;;;;;;;8.35;6.90;;;15.40;99.90;;;;;;5025159;28;20033;-70
2021/07/16 04:46:47;;;;;;;8.00;6.97;;;15.50;99.90;;;;;;5012694;28;20038;-71
2021/07/16 04:49:13;;;;;;;7.47;6.10;;;15.40;99.90;;;;;;5018098;28;20033;-71
2021/07/16 04:51:39;;;;;;;6.97;6.30;;;15.40;99.90;;;;;;5017095;28;20049;-71
2021/07/16 04:54:06;;;;;;;6.15;5.60;;;15.20;99.90;;;;;;5010654;28;20037;-70
2021/07/16 04:56:32;;;;;;;11.25;7.22;;;15.20;99.90;;;;;;5010322;28;20026;-70
2021/07/16 04:58:58;;;;;;;7.47;6.75;;;15.40;99.90;;;;;;5011005;28;20058;-71
2021/07/16 05:01:25;;;;;;;8.52;6.57;;;15.50;99.90;;;;;;5010894;28;20060;-71
2021/07/16 05:03:52;;;;;;;9.68;7.75;;;15.60;99.90;;;;;;5009098;28;20125;-70
2021/07/16 05:06:19;;;;;;;8.80;7.93;;;15.80;99.90;;;;;;4992544;28;20113;-70
2021/07/16 05:08:45;;;;;;;8.30;7.15;;;15.80;99.90;;;;;;5013709;28;20034;-70
2021/07/16 05:11:12;;;;;;;10.02;6.60;;;15.80;99.90;;;;;;5014835;28;20029;-71
2021/07/16 05:13:38;;;;;;;10.57;7.20;;;15.80;99.90;;;;;;5013589;28;20022;-70
2021/07/16 05:16:05;;;;;;;10.00;9.00;;;15.80;99.90;;;;;;4994434;28;20030;-71
2021/07/16 05:18:31;;;;;;;12.02;9.88;;;15.80;99.90;;;;;;5014082;28;20030;-71
2021/07/16 05:20:58;;;;;;;8.88;6.47;;;15.90;99.90;;;;;;4996825;28;20476;-72
2021/07/16 05:23:24;;;;;;;10.35;9.20;;;15.90;99.90;;;;;;5016158;28;20030;-69
2021/07/16 05:25:49;;;;;;;13.52;9.27;;;16.10;99.90;;;;;;5019871;28;20034;-71
2021/07/16 05:28:15;;;;;;;9.27;8.38;;;16.10;99.90;;;;;;5013299;28;20030;-71
2021/07/16 05:30:42;;;;;;;11.88;8.68;;;16.20;99.90;;;;;;5018445;28;20022;-71
2021/07/16 05:33:07;;;;;;;9.50;7.10;;;16.20;99.90;;;;;;5016711;28;20033;-71
2021/07/16 05:35:33;;;;;;;8.48;7.03;;;16.20;99.90;;;;;;4995338;28;20029;-72
2021/07/16 05:37:59;;;;;;;8.80;5.50;;;16.20;99.90;;;;;;5013925;28;20075;-71
2021/07/16 05:40:26;;;;;;;7.43;5.03;;;16.30;99.90;;;;;;5013436;28;20014;-71
2021/07/16 05:42:52;;;;;;;7.75;5.47;;;16.40;99.90;;;;;;5013856;28;20022;-71
2021/07/16 05:45:18;;;;;;;9.73;5.68;;;16.50;99.90;;;;;;5012100;28;20069;-70
2021/07/16 05:47:44;;;;;;;5.93;5.38;;;16.50;99.90;;;;;;5013926;28;20105;-70
2021/07/16 05:50:10;;;;;;;13.40;5.50;;;16.30;99.90;;;;;;5013799;28;20018;-70
2021/07/16 05:52:36;;;;;;;5.97;5.38;;;16.20;99.90;;;;;;5013740;28;20033;-69
2021/07/16 05:55:04;;;;;;;11.32;6.30;;;16.10;99.90;;;;;;5012383;28;20021;-70
2021/07/16 05:57:31;;;;;;;6.45;5.82;;;16.40;99.90;;;;;;5013511;28;20026;-69
2021/07/16 05:59:57;;;;;;;10.10;5.60;;;16.40;99.90;;;;;;5013374;28;20025;-70
2021/07/16 06:02:23;;;;;;;7.03;4.68;;;16.40;99.90;;;;;;5013432;28;20029;-69
2021/07/16 06:04:49;;;;;;;11.05;5.65;;;16.30;99.90;;;;;;5012526;28;20037;-70
2021/07/16 06:07:14;;;;;;;6.30;5.53;;;16.40;99.90;;;;;;5013119;28;20041;-69
2021/07/16 06:09:40;;;;;;;7.97;5.82;;;16.70;99.90;;;;;;5012973;28;20018;-69
2021/07/16 06:12:06;;;;;;;7.40;6.13;;;16.60;99.90;;;;;;5007850;28;20060;-68
2021/07/16 06:14:32;;;;;;;12.43;7.20;;;16.70;99.90;;;;;;5003481;28;20026;-69
2021/07/16 06:16:57;;;;;;;13.05;7.20;;;16.90;99.90;;;;;;5012783;28;20161;-70
2021/07/16 06:19:23;;;;;;;12.93;7.20;;;17.10;99.90;;;;;;5011711;28;20117;-70
2021/07/16 06:21:49;;;;;;;7.18;5.50;;;17.30;99.90;;;;;;5013334;28;20372;-68
2021/07/16 06:24:15;;;;;;;7.85;5.82;;;17.10;99.90;;;;;;5012468;28;20072;-69
2021/07/16 06:26:41;;;;;;;13.77;5.95;;;17.20;99.90;;;;;;5012962;28;20030;-69
2021/07/16 06:29:07;;;;;;;6.95;5.40;;;17.10;99.90;;;;;;5011109;28;20037;-69
2021/07/16 06:31:33;;;;;;;7.32;5.28;;;17.00;99.90;;;;;;5012668;28;20040;-69
2021/07/16 06:33:59;;;;;;;7.13;5.68;;;17.00;99.90;;;;;;5012872;28;20388;-69
2021/07/16 06:36:25;;;;;;;6.10;5.60;;;16.70;99.90;;;;;;5012073;28;20044;-69
2021/07/16 06:38:51;;;;;;;11.48;5.93;;;16.50;99.90;;;;;;5012496;28;20029;-68
2021/07/16 06:41:17;;;;;;;6.40;4.72;;;16.60;99.90;;;;;;5012793;28;20042;-69
2021/07/16 06:43:43;;;;;;;6.15;5.07;;;16.80;99.90;;;;;;5011130;28;20064;-69
2021/07/16 06:46:09;;;;;;;8.02;4.88;;;17.00;99.90;;;;;;5011965;28;20433;-68
2021/07/16 06:48:36;;;;;;;8.90;4.80;;;17.20;99.90;;;;;;5012343;28;20061;-69
2021/07/16 06:51:02;;;;;;;8.40;5.40;;;17.40;99.90;;;;;;5012350;28;20499;-70
2021/07/16 06:53:28;;;;;;;9.10;5.20;;;17.70;99.90;;;;;;5011822;28;20125;-68
2021/07/16 06:55:54;;;;;;;10.13;5.00;;;17.70;99.90;;;;;;5002685;28;20030;-68
2021/07/16 06:58:19;;;;;;;6.78;5.00;;;17.50;99.90;;;;;;4992661;28;20485;-69
2021/07/16 07:00:47;;;;;;;7.85;5.47;;;17.40;99.90;;;;;;4993348;28;20026;-68
2021/07/16 07:03:13;;;;;;;8.57;4.93;;;17.20;99.90;;;;;;4992744;28;20029;-70
2021/07/16 07:05:38;;;;;;;7.85;4.38;;;17.20;99.90;;;;;;4998784;28;20026;-69
2021/07/16 07:08:04;;;;;;;4.93;4.53;;;17.50;99.90;;;;;;4995956;28;20034;-69
2021/07/16 07:10:30;;;;;;;7.88;3.88;;;17.60;99.90;;;;;;5022407;23;20038;-68
2021/07/16 07:12:56;;;;;;;3.67;3.35;;;17.60;99.90;;;;;;5000384;28;20101;-69
2021/07/16 07:15:22;;;;;;;7.97;3.70;;;17.70;99.90;;;;;;4991853;28;20496;-68
2021/07/16 07:17:48;;;;;;;5.15;2.63;;;17.90;99.90;;;;;;4992715;28;20026;-68
2021/07/16 07:20:13;;;;;;;4.00;3.05;;;18.00;99.90;;;;;;4992817;28;20412;-68
2021/07/16 07:22:41;;;;;;;5.88;3.42;;;17.80;99.90;;;;;;4993127;28;20069;-69
2021/07/16 07:25:08;;;;;;;9.30;3.83;;;17.60;99.90;;;;;;4992097;28;20026;-69
2021/07/16 07:27:34;;;;;;;7.13;3.38;;;17.80;99.90;;;;;;4992135;28;20097;-70
2021/07/16 07:30:00;;;;;;;5.35;4.82;;;18.10;99.90;;;;;;4992304;28;20385;-69
2021/07/16 07:32:26;;;;;;;7.50;5.53;;;18.30;99.90;;;;;;4993048;28;20021;-70
2021/07/16 07:34:52;;;;;;;9.55;4.90;;;18.50;99.90;;;;;;4992481;28;20027;-70
2021/07/16 07:37:17;;;;;;;7.43;4.65;;;18.60;99.90;;;;;;4993295;28;20026;-70
2021/07/16 07:39:43;;;;;;;16.25;5.00;;;18.60;99.90;;;;;;4995948;28;20079;-70
2021/07/16 07:42:15;;;;;;;4.82;4.00;;;19.10;99.90;;;;;;5012323;28;20080;-70
2021/07/16 07:44:41;;;;;;;5.53;4.07;;;19.20;99.90;;;;;;4994180;28;20030;-70
2021/07/16 07:47:07;;;;;;;6.65;4.35;;;19.40;99.90;;;;;;5012299;28;20022;-70
2021/07/16 07:49:33;;;;;;;4.43;4.13;;;19.40;99.90;;;;;;5011203;28;20412;-69
2021/07/16 07:51:59;;;;;;;10.80;4.32;;;19.50;99.90;;;;;;5012083;28;20029;-69
2021/07/16 07:54:25;;;;;;;5.88;4.20;;;18.90;99.90;;;;;;5011359;28;20026;-70
2021/07/16 07:56:50;;;;;;;7.53;4.85;;;18.60;99.90;;;;;;4994393;28;20587;-70
2021/07/16 07:59:16;;;;;;;4.68;4.28;;;18.90;99.90;;;;;;5011881;28;20030;-71
2021/07/16 08:01:42;;;;;;;9.25;3.35;;;19.20;99.90;;;;;;5012119;28;20022;-69
2021/07/16 08:04:07;;;;;;;4.15;3.75;;;19.60;99.90;;;;;;5011803;28;20018;-70
2021/07/16 08:06:33;;;;;;;3.42;3.13;;;20.10;99.90;;;;;;4996622;28;20026;-72
2021/07/16 08:08:59;;;;;;;3.17;2.97;;;20.50;99.90;;;;;;4992922;28;20026;-73
2021/07/16 08:11:26;;;;;;;2.88;2.67;;;21.10;99.90;;;;;;5010304;28;20045;-71
2021/07/16 08:13:52;;;;;;;4.28;3.70;;;21.60;99.90;;;;;;5012505;28;20040;-70
2021/07/16 08:16:17;;;;;;;3.83;3.42;;;21.40;99.90;;;;;;4992304;28;20480;-71
2021/07/16 08:18:43;;;;;;;3.00;2.80;;;21.40;99.90;;;;;;5010956;28;20483;-71
2021/07/16 08:21:09;;;;;;;3.78;2.92;;;21.50;99.90;;;;;;5011887;28;20060;-70
2021/07/16 08:23:35;;;;;;;3.00;2.80;;;21.40;99.90;;;;;;4994482;28;20031;-71
2021/07/16 08:26:00;;;;;;;3.20;3.00;;;21.20;99.90;;;;;;4993908;28;20022;-70
2021/07/16 08:28:26;;;;;;;3.58;3.28;;;21.00;99.90;;;;;;4996222;28;20035;-70
2021/07/16 08:30:52;;;;;;;5.82;3.47;;;21.00;99.90;;;;;;4995699;28;20130;-70
2021/07/16 08:33:17;;;;;;;3.13;2.80;;;20.70;99.90;;;;;;4992739;28;20027;-71
2021/07/16 08:35:43;;;;;;;2.88;2.67;;;20.70;99.90;;;;;;5010613;28;20060;-70
2021/07/16 08:38:09;;;;;;;3.05;2.85;;;20.80;99.90;;;;;;5011990;28;20025;-71
2021/07/16 08:40:35;;;;;;;5.32;3.20;;;20.60;99.90;;;;;;5011472;28;20052;-70
2021/07/16 08:43:01;;;;;;;3.45;3.00;;;20.40;99.90;;;;;;5013921;28;20032;-70
2021/07/16 08:45:27;;;;;;;4.53;3.30;;;20.50;99.90;;;;;;5014715;28;20018;-70
2021/07/16 08:47:53;;;;;;;3.60;3.28;;;20.50;99.90;;;;;;5015245;28;20032;-71
2021/07/16 08:50:20;;;;;;;3.08;2.38;;;20.90;99.90;;;;;;5015062;28;20099;-70
2021/07/16 08:52:47;;;;;;;2.67;2.55;;;21.40;99.90;;;;;;5015393;28;20019;-71
2021/07/16 08:55:14;;;;;;;5.63;2.45;;;21.30;99.90;;;;;;4996792;28;20095;-71
2021/07/16 08:57:40;;;;;;;2.83;2.15;;;21.60;99.90;;;;;;5015208;28;20080;-71
2021/07/16 09:00:12;;;;;;;5.60;2.10;;;22.60;99.90;;;;;;5015242;28;20026;-71
2021/07/16 09:02:58;;;;;;;;;;;23.70;99.90;;;;;;5030170;28;20016;-70
2021/07/16 09:05:39;;;;;;;2.42;2.22;;;23.50;99.90;;;;;;5005164;28;19960;-71
2021/07/16 09:08:12;;;;;;;2.13;2.03;;;22.50;99.90;;;;;;4995356;28;20026;-71
2021/07/16 09:10:53;;;;;;;4.55;2.33;;;22.00;99.90;;;;;;4999345;28;20057;-70
2021/07/16 09:13:22;;;;;;;1.80;1.70;;;21.80;99.90;;;;;;4976504;28;20022;-70
2021/07/16 09:16:02;;;;;;;10.32;3.78;;;22.00;99.90;;;;;;4993484;28;20035;-71
2021/07/16 09:18:29;;;;;;;6.13;3.10;;;21.80;99.90;;;;;;4994060;28;20527;-70
2021/07/16 09:21:01;;;;;;;3.88;3.47;;;21.20;99.90;;;;;;4994016;28;20057;-70
2021/07/16 09:23:35;;;;;;;3.70;3.40;;;20.50;99.90;;;;;;4994020;28;20022;-70
2021/07/16 09:26:26;;;;;;;4.25;3.33;;;20.20;99.90;;;;;;4993850;28;20034;-70
2021/07/16 09:28:55;;;;;;;5.43;3.45;;;20.10;99.90;;;;;;4994554;28;20065;-72
2021/07/16 09:31:23;;;;;;;8.55;4.47;;;19.90;99.90;;;;;;4994838;28;20026;-71
2021/07/16 09:33:56;;;;;;;4.15;3.75;;;19.90;99.90;;;;;;4994540;28;20034;-71
2021/07/16 09:36:23;;;;;;;;;;;19.90;99.90;;;;;;4994077;28;20030;-70
2021/07/16 09:39:11;;;;;;;4.57;4.20;;;19.80;99.90;;;;;;5009341;28;19917;-71
2021/07/16 09:41:54;;;;;;;4.70;4.28;;;19.70;99.90;;;;;;5013379;28;20022;-72
2021/07/16 09:44:34;;;;;;;4.07;3.78;;;19.70;99.90;;;;;;5012535;28;20083;-71
2021/07/16 09:47:14;;;;;;;4.75;3.67;;;20.00;99.90;;;;;;5013796;28;20042;-71
2021/07/16 09:49:41;;;;;;;6.00;3.10;;;20.70;99.90;;;;;;4996203;28;20080;-70
2021/07/16 09:52:16;;;;;;;3.53;3.20;;;21.30;99.90;;;;;;4996245;28;20030;-68
2021/07/16 09:55:14;;;;;;;5.28;3.40;;;21.60;99.90;;;;;;5012734;28;20464;-70
2021/07/16 09:57:48;;;;;;;4.10;3.70;;;22.00;99.90;;;;;;5013843;28;20108;-70
2021/07/16 10:00:20;;;;;;;4.20;2.97;;;22.30;99.90;;;;;;5013624;28;20523;-69
2021/07/16 10:02:49;;;;;;;3.22;3.03;;;21.80;99.90;;;;;;5013564;28;20088;-69
2021/07/16 10:05:15;;;;;;;2.88;2.67;;;22.00;99.90;;;;;;5013074;28;20033;-70
2021/07/16 10:07:42;;;;;;;4.43;2.60;;;22.40;99.90;;;;;;5013781;28;20022;-70
2021/07/16 10:10:11;;;;;;;3.00;2.60;;;23.00;99.90;;;;;;5013041;28;20036;-70
2021/07/16 10:12:39;;;;;;;4.30;2.95;;;22.50;99.90;;;;;;5013471;28;20036;-70
2021/07/16 10:15:06;;;;;;;2.28;2.17;;;22.70;99.90;;;;;;5012859;28;20032;-70
2021/07/16 10:17:32;;;;;;;3.45;2.80;;;22.30;99.90;;;;;;5013342;28;20445;-70
2021/07/16 10:19:57;;;;;;;3.83;3.58;;;22.30;99.90;;;;;;5012702;28;20022;-70
2021/07/16 10:22:24;;;;;;;3.17;2.63;;;22.40;99.90;;;;;;5013143;28;20018;-71
2021/07/16 10:24:49;;;;;;;3.17;2.88;;;22.50;99.90;;;;;;5011690;28;20018;-70
2021/07/16 10:27:15;;;;;;;4.75;2.47;;;22.70;99.90;;;;;;5013307;28;20026;-71
2021/07/16 10:29:45;;;;;;;3.55;2.40;;;22.80;99.90;;;;;;5013184;28;20484;-70
2021/07/16 10:32:12;;;;;;;2.80;2.45;;;22.60;99.90;;;;;;5013196;28;20030;-70
2021/07/16 10:34:39;;;;;;;2.50;2.30;;;22.70;99.90;;;;;;5012776;28;20341;-70
2021/07/16 10:37:10;;;;;;;2.83;2.63;;;22.70;99.90;;;;;;5012911;28;20025;-70
2021/07/16 10:39:39;;;;;;;3.00;2.10;;;23.00;99.90;;;;;;5012750;28;20057;-70
2021/07/16 10:42:26;;;;;;;2.28;2.13;;;23.30;99.90;;;;;;5013192;28;20040;-70
2021/07/16 10:45:00;;;;;;;2.10;2.00;;;22.90;99.90;;;;;;5012314;28;20041;-71
2021/07/16 10:47:41;;;;;;;1.75;1.65;;;22.90;99.90;;;;;;5012941;28;20032;-69
2021/07/16 10:50:32;;;;;;;3.45;2.45;;;22.70;99.90;;;;;;5012738;28;20068;-70
2021/07/16 10:52:58;;;;;;;5.28;2.30;;;22.60;99.90;;;;;;5012646;28;20030;-69
2021/07/16 10:55:36;;;;;;;1.92;1.83;;;22.70;99.90;;;;;;5012326;28;20044;-69
2021/07/16 10:58:21;;;;;;;2.45;1.80;;;22.70;99.90;;;;;;5012754;28;20022;-70
2021/07/16 11:00:49;;;;;;;2.75;2.10;;;22.50;99.90;;;;;;5012402;28;20036;-69
2021/07/16 11:03:16;;;;;;;2.38;2.00;;;22.10;99.90;;;;;;5009359;28;20022;-69
2021/07/16 11:05:45;;;;;;;1.98;1.88;;;22.20;99.90;;;;;;5011159;28;20026;-70
2021/07/16 11:08:35;;;;;;;2.22;2.03;;;22.70;99.90;;;;;;5011976;28;20022;-69
2021/07/16 11:11:03;;;;;;;1.73;1.63;;;23.00;99.90;;;;;;5011218;28;20187;-69
2021/07/16 11:13:35;;;;;;;2.40;2.10;;;23.50;99.90;;;;;;5012229;28;20045;-69
2021/07/16 11:16:34;;;;;;;1.83;1.73;;;23.90;99.90;;;;;;5011736;28;20029;-69
2021/07/16 11:19:09;;;;;;;1.95;1.80;;;24.40;99.90;;;;;;5011569;28;20129;-69
2021/07/16 11:21:46;;;;;;;1.75;1.65;;;25.20;99.90;;;;;;5011912;28;20511;-69
2021/07/16 11:26:49;;;;;;;1.90;1.80;;;24.20;99.90;;;;;;5011800;28;20029;-69
2021/07/16 11:29:15;;;;;;;1.40;1.35;;;23.80;99.90;;;;;;5011809;28;20095;-68
2021/07/16 11:31:41;;;;;;;1.30;1.30;;;23.50;99.90;;;;;;5012324;28;20573;-69
2021/07/16 11:34:10;;;;;;;1.83;1.73;;;23.60;99.90;;;;;;5012371;28;20029;-69
2021/07/16 11:36:36;;;;;;;1.50;1.40;;;23.50;99.90;;;;;;5012043;28;20084;-69
2021/07/16 11:39:02;;;;;;;1.45;1.35;;;23.80;99.90;;;;;;5011864;28;20488;-69
2021/07/16 11:41:32;;;;;;;1.55;1.35;;;24.20;99.90;;;;;;5011738;28;20523;-68
2021/07/16 11:43:59;;;;;;;3.58;1.50;;;24.00;99.90;;;;;;5011059;28;20029;-69
2021/07/16 11:46:29;;;;;;;1.60;1.50;;;24.20;99.90;;;;;;5011912;28;20024;-69
2021/07/16 11:48:55;;;;;;;2.13;1.38;;;24.40;99.90;;;;;;5012265;28;20116;-69
2021/07/16 11:51:31;;;;;;;1.92;1.30;;;24.10;99.90;;;;;;5013143;28;20054;-69
2021/07/16 11:54:29;;;;;;;2.85;1.33;;;24.70;99.90;;;;;;5013299;28;20026;-69
2021/07/16 11:56:57;;;;;;;1.50;1.40;;;25.30;99.90;;;;;;4995308;28;20403;-69
2021/07/16 11:59:25;;;;;;;2.92;1.65;;;25.60;99.90;;;;;;5013574;28;20456;-69
2021/07/16 12:02:11;;;;;;;1.70;1.60;;;25.40;99.90;;;;;;5013041;28;20038;-69
2021/07/16 12:04:39;;;;;;;2.28;1.20;;;25.80;99.90;;;;;;4995115;28;20084;-69
2021/07/16 12:07:05;;;;;;;1.58;1.48;;;25.70;99.90;;;;;;5012729;28;20017;-68
2021/07/16 12:09:35;;;;;;;1.67;1.58;;;25.20;99.90;;;;;;5012052;28;20048;-69
2021/07/16 12:12:07;;;;;;;1.50;1.40;;;25.50;99.90;;;;;;4994882;28;20034;-70
2021/07/16 12:14:46;;;;;;;1.35;1.35;;;26.10;99.90;;;;;;5001920;28;20068;-71
2021/07/16 12:17:13;;;;;;;1.55;1.20;;;26.50;99.90;;;;;;5013715;28;20092;-70
2021/07/16 12:19:39;;;;;;;1.65;1.50;;;26.10;99.90;;;;;;5016341;28;20086;-70
2021/07/16 12:22:05;;;;;;;1.70;1.60;;;25.80;99.90;;;;;;5016495;28;20116;-70
2021/07/16 12:24:32;;;;;;;2.95;1.60;;;24.90;99.90;;;;;;5015796;28;20021;-69
2021/07/16 12:27:24;;;;;;;1.70;1.30;;;24.80;99.90;;;;;;5016114;28;20049;-68
2021/07/16 12:29:57;;;;;;;1.30;1.20;;;25.00;99.90;;;;;;5012835;28;20050;-69
2021/07/16 12:32:42;;;;;;;2.65;1.55;;;26.50;99.90;;;;;;5010518;28;20026;-69
2021/07/16 12:35:19;;;;;;;1.08;1.00;;;28.00;99.90;;;;;;5014224;28;20419;-71
2021/07/16 12:37:47;;;;;;;2.75;0.90;;;29.50;99.90;;;;;;4998106;28;20400;-69
2021/07/16 12:40:16;;;;;;;1.65;1.10;;;29.40;99.90;;;;;;4997557;28;20022;-69
2021/07/16 12:43:06;;;;;;;1.13;1.02;;;30.20;99.90;;;;;;5015337;28;20022;-69
2021/07/16 12:45:55;;;;;;;0.85;0.85;;;31.60;98.10;;;;;;5014978;28;20033;-70
2021/07/16 12:48:32;;;;;;;1.30;1.08;;;32.60;94.50;;;;;;5015625;28;20543;-70
2021/07/16 12:51:08;;;;;;;2.13;0.95;;;32.70;95.40;;;;;;5015199;28;20037;-70
2021/07/16 12:53:42;;;;;;;2.15;1.00;;;32.00;93.20;;;;;;5015519;28;20037;-70
2021/07/16 12:56:26;;;;;;;1.65;1.23;;;30.50;95.40;;;;;;5014623;28;20107;-69